Time;durP1;ratioP1;P1;durP2;ratioP2;P2;SDS_P1;SDS_P2;PMS_P1;PMS_P2;Temp;Humidity;BMP_temperature;BMP_pressure;BME280_temperature;BME280_humidity;BME280_pressure;Samples;Min_cycle;Max_cycle;Signal;HPM_P1;HPM_P2
2023/10/19 00:00:44;;;;;;;15.67;14.67;;;13.00;50.70;;;;;;6136172;23;20381;-78
2023/10/19 00:03:10;;;;;;;15.90;14.80;;;13.00;51.10;;;;;;6161863;23;20365;-77
2023/10/19 00:05:35;;;;;;;16.37;15.17;;;13.00;51.10;;;;;;6161582;23;20377;-78
2023/10/19 00:08:16;;;;;;;14.50;13.50;;;13.00;51.30;;;;;;6160858;23;20391;-78
2023/10/19 00:10:43;;;;;;;15.60;14.50;;;13.10;51.40;;;;;;6135474;23;20469;-77
2023/10/19 00:13:14;;;;;;;15.77;14.63;;;13.10;51.60;;;;;;6164525;23;20472;-75
2023/10/19 00:15:47;;;;;;;15.43;14.13;;;13.10;51.60;;;;;;6132166;23;20376;-78
2023/10/19 00:23:34;;;;;;;13.90;13.00;;;13.30;52.00;;;;;;6167602;23;20427;-75
2023/10/19 00:26:17;;;;;;;15.77;14.57;;;13.30;51.70;;;;;;6159035;23;20369;-77
2023/10/19 00:28:45;;;;;;;12.10;11.30;;;13.30;52.00;;;;;;6160061;23;20353;-79
2023/10/19 00:31:11;;;;;;;13.27;12.27;;;13.20;53.80;;;;;;6159687;23;20400;-77
2023/10/19 00:33:40;;;;;;;10.90;10.20;;;13.20;54.20;;;;;;6160884;23;20452;-75
2023/10/19 00:36:12;;;;;;;10.03;9.43;;;13.20;54.60;;;;;;6161118;23;20365;-77
2023/10/19 00:38:39;;;;;;;8.70;8.20;;;13.30;55.20;;;;;;6160235;23;20357;-77
2023/10/19 00:41:11;;;;;;;9.30;8.60;;;13.40;55.50;;;;;;6137084;23;20404;-76
2023/10/19 00:43:44;;;;;;;12.60;8.60;;;13.40;55.50;;;;;;6160890;23;20376;-77
2023/10/19 00:48:47;;;;;;;8.80;8.30;;;13.50;56.00;;;;;;6163295;23;20437;-77
2023/10/19 00:51:27;;;;;;;7.70;7.13;;;13.50;56.30;;;;;;6161107;23;20377;-77
2023/10/19 00:54:05;;;;;;;8.60;7.90;;;13.60;56.80;;;;;;6157976;23;20353;-77
2023/10/19 00:56:34;;;;;;;7.67;7.27;;;13.60;57.20;;;;;;6158192;23;20476;-76
2023/10/19 00:59:12;;;;;;;7.57;7.17;;;13.60;57.40;;;;;;6130762;23;20393;-75
2023/10/19 01:01:43;;;;;;;7.60;7.00;;;13.60;57.70;;;;;;6157135;23;20389;-77
2023/10/19 01:04:13;;;;;;;8.10;7.50;;;13.60;57.80;;;;;;6130473;23;20788;-77
2023/10/19 01:06:43;;;;;;;7.63;7.13;;;13.60;58.00;;;;;;6130701;23;20377;-77
2023/10/19 01:09:15;;;;;;;7.90;7.40;;;13.60;58.40;;;;;;6156573;23;20464;-77
2023/10/19 01:11:45;;;;;;;8.17;7.77;;;13.60;57.50;;;;;;6156786;23;20408;-77
2023/10/19 01:14:27;;;;;;;8.37;7.80;;;13.70;57.50;;;;;;6156519;23;20445;-76
2023/10/19 01:16:56;;;;;;;7.37;6.87;;;13.70;57.90;;;;;;6130325;23;20420;-77
2023/10/19 01:19:23;;;;;;;7.37;6.90;;;13.70;58.20;;;;;;6156625;23;20373;-76
2023/10/19 01:21:53;;;;;;;8.40;7.70;;;13.80;58.50;;;;;;6156530;23;20412;-77
2023/10/19 01:24:40;;;;;;;8.13;7.63;;;13.80;58.90;;;;;;6156665;23;20866;-77
2023/10/19 01:27:08;;;;;;;7.77;7.10;;;13.80;58.70;;;;;;6157097;23;20358;-77
2023/10/19 01:29:35;;;;;;;7.33;6.93;;;13.90;58.30;;;;;;6157400;23;20377;-76
2023/10/19 01:32:11;;;;;;;7.60;7.10;;;13.90;58.00;;;;;;6157118;23;20397;-77
2023/10/19 01:34:37;;;;;;;8.77;7.97;;;14.00;58.20;;;;;;6156562;23;20424;-77
2023/10/19 01:37:03;;;;;;;7.50;7.00;;;14.00;58.10;;;;;;6157868;23;20523;-79
2023/10/19 01:39:35;;;;;;;8.20;7.40;;;14.00;58.20;;;;;;6156426;23;20154;-77
2023/10/19 01:42:01;;;;;;;7.97;7.47;;;14.00;58.60;;;;;;6156494;23;20404;-77
2023/10/19 01:44:27;;;;;;;8.43;7.87;;;14.00;59.20;;;;;;6130374;23;20599;-77
2023/10/19 01:46:53;;;;;;;7.53;7.03;;;14.00;59.70;;;;;;6156162;23;20864;-77
2023/10/19 01:49:28;;;;;;;10.57;7.13;;;14.00;59.80;;;;;;6156480;23;20400;-77
2023/10/19 01:51:55;;;;;;;8.20;7.40;;;14.00;60.50;;;;;;6137317;23;20177;-76
2023/10/19 01:54:23;;;;;;;8.50;8.00;;;14.00;61.00;;;;;;6157585;23;20552;-76
2023/10/19 01:56:56;;;;;;;8.40;7.87;;;14.00;61.30;;;;;;6156074;23;20921;-77
2023/10/19 01:59:27;;;;;;;8.17;7.50;;;14.10;61.60;;;;;;6133593;23;20774;-77
2023/10/19 02:01:54;;;;;;;8.30;7.47;;;14.10;61.90;;;;;;6160340;23;20465;-76
2023/10/19 02:04:21;;;;;;;8.77;8.17;;;14.10;62.10;;;;;;6133567;23;20377;-78
2023/10/19 02:06:48;;;;;;;8.17;7.50;;;14.10;62.30;;;;;;6159500;23;20404;-77
2023/10/19 02:09:17;;;;;;;7.53;7.03;;;14.10;62.60;;;;;;6159987;23;20384;-77
2023/10/19 02:11:46;;;;;;;7.20;6.70;;;14.10;63.10;;;;;;6159964;23;20405;-78
2023/10/19 02:14:15;;;;;;;7.33;6.90;;;14.10;63.30;;;;;;6133378;23;20389;-77
2023/10/19 02:16:52;;;;;;;7.90;7.40;;;14.20;63.20;;;;;;6159128;23;20428;-77
2023/10/19 02:19:20;;;;;;;7.70;7.20;;;14.30;62.90;;;;;;6132967;23;20377;-77
2023/10/19 02:21:48;;;;;;;8.37;7.87;;;14.30;62.40;;;;;;6127658;23;20421;-76
2023/10/19 02:24:14;;;;;;;8.03;7.33;;;14.30;62.10;;;;;;6129420;23;20366;-76
2023/10/19 02:26:40;;;;;;;8.23;7.63;;;14.30;61.50;;;;;;6127341;23;20785;-78
2023/10/19 02:29:09;;;;;;;8.33;7.50;;;14.40;61.20;;;;;;6152520;23;20390;-77
2023/10/19 02:31:39;;;;;;;7.67;7.17;;;14.40;60.90;;;;;;6129623;23;20426;-77
2023/10/19 02:34:07;;;;;;;7.47;6.97;;;14.40;60.60;;;;;;6128320;23;20393;-79
2023/10/19 02:36:33;;;;;;;8.27;7.70;;;14.50;60.60;;;;;;6129831;23;20425;-78
2023/10/19 02:39:07;;;;;;;7.63;7.13;;;14.50;60.40;;;;;;6129976;23;20374;-77
2023/10/19 02:41:37;;;;;;;9.87;8.03;;;14.60;60.20;;;;;;6153765;23;20410;-79
2023/10/19 02:44:09;;;;;;;8.10;7.70;;;14.60;59.80;;;;;;6130886;23;20702;-78
2023/10/19 02:46:38;;;;;;;15.47;14.37;;;14.60;59.50;;;;;;6130233;23;20856;-77
2023/10/19 02:49:13;;;;;;;16.20;15.00;;;14.60;58.20;;;;;;6130896;23;20881;-76
2023/10/19 02:51:40;;;;;;;15.60;14.70;;;14.40;56.50;;;;;;6131497;23;20436;-77
2023/10/19 02:54:07;;;;;;;16.03;15.03;;;14.40;56.50;;;;;;6138778;23;20441;-77
2023/10/19 02:56:38;;;;;;;15.23;14.33;;;14.40;56.50;;;;;;6147212;23;20453;-78
2023/10/19 02:59:05;;;;;;;17.37;16.27;;;14.40;55.80;;;;;;6147358;23;20443;-76
2023/10/19 03:01:33;;;;;;;15.83;14.93;;;14.30;55.20;;;;;;6147635;23;20792;-78
2023/10/19 03:04:02;;;;;;;16.60;15.50;;;14.30;55.20;;;;;;6129376;23;21067;-78
2023/10/19 03:06:33;;;;;;;15.60;14.50;;;14.30;54.50;;;;;;6127676;23;20397;-79
2023/10/19 03:09:13;;;;;;;16.10;15.10;;;14.30;54.20;;;;;;6129130;23;20370;-78
2023/10/19 03:11:42;;;;;;;15.63;14.73;;;14.30;53.90;;;;;;6128948;23;20394;-78
2023/10/19 03:14:09;;;;;;;16.57;15.57;;;14.30;53.80;;;;;;6128185;23;20370;-78
2023/10/19 03:16:36;;;;;;;16.40;15.20;;;14.30;53.70;;;;;;6128765;23;20418;-76
2023/10/19 03:19:02;;;;;;;16.07;15.07;;;14.30;53.30;;;;;;6128762;23;20377;-78
2023/10/19 03:21:27;;;;;;;17.20;16.10;;;14.30;53.50;;;;;;6137358;23;20405;-78
2023/10/19 03:23:56;;;;;;;15.90;14.63;;;14.30;53.40;;;;;;6132455;23;20221;-78
2023/10/19 03:26:36;;;;;;;17.17;16.17;;;14.20;53.10;;;;;;6158369;23;20693;-79
2023/10/19 03:29:08;;;;;;;16.73;15.70;;;14.20;52.50;;;;;;6132878;23;20373;-77
2023/10/19 03:31:43;;;;;;;15.80;14.87;;;14.20;52.40;;;;;;6136254;23;20678;-78
2023/10/19 03:34:09;;;;;;;17.30;16.20;;;14.20;52.20;;;;;;6158510;23;20407;-77
2023/10/19 03:36:36;;;;;;;18.00;16.80;;;14.20;52.20;;;;;;6135323;23;20511;-77
2023/10/19 03:39:11;;;;;;;18.27;17.07;;;14.20;52.50;;;;;;6161271;23;20369;-77
2023/10/19 03:41:38;;;;;;;18.30;17.20;;;14.10;52.20;;;;;;6159718;23;20416;-77
2023/10/19 03:44:04;;;;;;;18.57;17.37;;;14.10;53.00;;;;;;6158673;23;20373;-78
2023/10/19 03:46:37;;;;;;;18.07;16.87;;;14.10;52.90;;;;;;6158719;23;20802;-78
2023/10/19 03:49:13;;;;;;;18.20;16.93;;;14.10;52.80;;;;;;6159488;23;20137;-77
2023/10/19 03:51:58;;;;;;;18.43;17.27;;;14.10;52.50;;;;;;6161263;23;20420;-78
2023/10/19 03:54:25;;;;;;;17.53;16.47;;;14.10;52.20;;;;;;6161644;23;20639;-77
2023/10/19 03:56:52;;;;;;;16.70;15.80;;;14.00;51.80;;;;;;6133342;23;20424;-78
2023/10/19 03:59:17;;;;;;;16.73;15.63;;;14.00;52.10;;;;;;6132710;23;20373;-78
2023/10/19 04:01:43;;;;;;;16.47;15.47;;;14.00;52.20;;;;;;6153983;23;20459;-76
2023/10/19 04:04:10;;;;;;;16.23;15.13;;;14.00;52.20;;;;;;6128917;23;20501;-76
2023/10/19 04:06:37;;;;;;;15.60;14.70;;;14.00;52.20;;;;;;6157151;23;20799;-77
2023/10/19 04:09:05;;;;;;;15.37;14.37;;;14.00;52.40;;;;;;6154547;23;20436;-77
2023/10/19 04:11:48;;;;;;;14.80;14.00;;;14.00;52.50;;;;;;6154720;23;20479;-76
2023/10/19 04:14:15;;;;;;;14.93;14.07;;;14.00;52.50;;;;;;6155117;23;20391;-77
2023/10/19 04:16:43;;;;;;;16.40;15.40;;;14.00;52.60;;;;;;6155495;23;20909;-77
2023/10/19 04:19:10;;;;;;;14.40;13.60;;;14.00;52.70;;;;;;6155233;23;20917;-78
2023/10/19 04:21:38;;;;;;;14.77;13.77;;;14.00;52.90;;;;;;6155615;23;20413;-75
2023/10/19 04:24:08;;;;;;;15.00;14.20;;;14.00;52.90;;;;;;6155690;23;20374;-77
2023/10/19 04:26:37;;;;;;;15.17;14.30;;;14.00;52.90;;;;;;6155822;23;20381;-76
2023/10/19 04:29:10;;;;;;;14.77;13.77;;;14.00;52.70;;;;;;6155690;23;20708;-77
2023/10/19 04:31:37;;;;;;;14.60;13.70;;;14.00;52.80;;;;;;6156175;23;20404;-77
2023/10/19 04:34:07;;;;;;;13.90;12.90;;;14.00;53.00;;;;;;6129539;23;20864;-75
2023/10/19 04:36:33;;;;;;;14.57;13.67;;;14.00;53.30;;;;;;6131497;23;20428;-79
2023/10/19 04:39:00;;;;;;;14.50;13.50;;;14.00;53.40;;;;;;6134315;23;20403;-80
2023/10/19 04:41:29;;;;;;;14.43;13.53;;;14.00;53.20;;;;;;6162857;23;20399;-80
2023/10/19 04:43:57;;;;;;;14.77;13.80;;;14.00;53.30;;;;;;6163472;23;20369;-80
2023/10/19 04:46:23;;;;;;;14.17;13.37;;;14.00;53.30;;;;;;6162578;23;20473;-79
2023/10/19 04:48:49;;;;;;;13.80;13.00;;;14.00;53.10;;;;;;6164464;23;20388;-80
2023/10/19 04:51:15;;;;;;;14.20;13.40;;;14.00;53.10;;;;;;6137885;23;20468;-80
2023/10/19 04:53:42;;;;;;;14.47;13.57;;;14.00;52.50;;;;;;6137602;23;20161;-80
2023/10/19 04:56:12;;;;;;;14.27;13.10;;;14.10;52.80;;;;;;6163856;23;20365;-80
2023/10/19 04:58:39;;;;;;;12.70;12.00;;;14.10;52.70;;;;;;6163952;23;20488;-80
2023/10/19 05:01:05;;;;;;;13.37;12.57;;;14.10;52.90;;;;;;6165317;23;20891;-78
2023/10/19 05:03:31;;;;;;;13.40;12.50;;;14.10;52.70;;;;;;6137058;23;20416;-79
2023/10/19 05:05:57;;;;;;;13.20;12.33;;;14.10;52.80;;;;;;6137407;23;20413;-80
2023/10/19 05:08:27;;;;;;;12.10;11.40;;;14.00;52.90;;;;;;6145617;23;20448;-79
2023/10/19 05:10:59;;;;;;;12.53;11.67;;;14.00;52.80;;;;;;6151115;23;20405;-80
2023/10/19 05:13:35;;;;;;;13.30;12.50;;;14.00;52.80;;;;;;6143079;23;20404;-80
2023/10/19 05:16:01;;;;;;;13.17;12.20;;;14.00;52.90;;;;;;6174419;23;20358;-77
2023/10/19 05:18:27;;;;;;;13.90;13.10;;;14.10;53.10;;;;;;6150016;23;20432;-78
2023/10/19 05:20:55;;;;;;;13.63;12.60;;;14.00;53.70;;;;;;6155337;23;20150;-79
2023/10/19 05:23:25;;;;;;;12.17;11.33;;;14.00;52.90;;;;;;6156092;23;20142;-79
2023/10/19 05:26:02;;;;;;;14.87;13.87;;;14.00;52.60;;;;;;6155786;23;20377;-78
2023/10/19 05:28:29;;;;;;;14.30;13.40;;;14.00;52.50;;;;;;6155028;23;20383;-79
2023/10/19 05:30:55;;;;;;;15.63;14.40;;;14.00;52.20;;;;;;6149760;23;20597;-79
2023/10/19 05:33:20;;;;;;;16.10;14.83;;;14.00;52.20;;;;;;6167812;23;20369;-82
2023/10/19 05:35:50;;;;;;;16.70;15.60;;;14.00;52.50;;;;;;6135842;23;20153;-80
2023/10/19 05:38:16;;;;;;;14.93;14.03;;;14.10;51.80;;;;;;6135269;23;20182;-80
2023/10/19 05:40:45;;;;;;;14.60;13.70;;;14.10;51.60;;;;;;6136760;23;20446;-80
2023/10/19 05:43:11;;;;;;;13.03;12.23;;;14.10;51.70;;;;;;6138024;23;20391;-81
2023/10/19 05:45:52;;;;;;;15.50;14.40;;;14.10;51.60;;;;;;6164788;23;20377;-81
2023/10/19 05:48:20;;;;;;;14.90;13.93;;;14.10;51.70;;;;;;6156652;23;20436;-79
2023/10/19 05:50:45;;;;;;;13.90;13.10;;;14.10;51.70;;;;;;6135859;23;20421;-80
2023/10/19 05:53:11;;;;;;;14.83;12.80;;;14.10;51.60;;;;;;6162536;23;20381;-79
2023/10/19 05:55:39;;;;;;;14.07;13.37;;;14.20;51.60;;;;;;6162060;23;20232;-81
2023/10/19 05:58:05;;;;;;;14.87;13.80;;;14.10;51.50;;;;;;6136007;23;20433;-80
2023/10/19 06:00:30;;;;;;;14.20;13.40;;;14.20;51.70;;;;;;6168669;23;20388;-79
2023/10/19 06:02:57;;;;;;;13.60;12.80;;;14.20;51.70;;;;;;6166516;23;20165;-79
2023/10/19 06:05:23;;;;;;;14.90;13.77;;;14.20;51.80;;;;;;6168378;23;20667;-79
2023/10/19 06:07:49;;;;;;;14.83;13.93;;;14.20;51.90;;;;;;6161854;23;20400;-78
2023/10/19 06:10:20;;;;;;;15.27;14.07;;;14.20;52.40;;;;;;6163475;23;20388;-80
2023/10/19 06:12:48;;;;;;;15.00;13.90;;;14.20;51.80;;;;;;6138232;23;20467;-79
2023/10/19 06:15:16;;;;;;;14.13;13.00;;;14.20;51.60;;;;;;6163680;23;20377;-81
2023/10/19 06:17:43;;;;;;;14.80;13.60;;;14.30;51.60;;;;;;6134914;23;20432;-81
2023/10/19 06:20:28;;;;;;;14.07;13.27;;;14.30;51.40;;;;;;6137216;23;20381;-82
2023/10/19 06:23:04;;;;;;;14.27;13.17;;;14.30;51.40;;;;;;6130300;23;20452;-80
2023/10/19 06:25:30;;;;;;;14.57;13.67;;;14.30;51.20;;;;;;6132724;23;20358;-80
2023/10/19 06:27:57;;;;;;;15.40;14.50;;;14.40;51.40;;;;;;6131933;23;20392;-80
2023/10/19 06:30:23;;;;;;;14.23;13.40;;;14.40;51.30;;;;;;6130300;23;20876;-80
2023/10/19 06:33:02;;;;;;;14.60;13.50;;;14.40;51.40;;;;;;6132099;23;20473;-79
2023/10/19 06:35:32;;;;;;;14.47;13.57;;;14.50;51.30;;;;;;6134826;23;20365;-80
2023/10/19 06:37:59;;;;;;;12.73;12.03;;;14.40;51.40;;;;;;6132812;23;20464;-81
2023/10/19 06:40:28;;;;;;;14.50;13.50;;;14.50;51.80;;;;;;6131142;23;20366;-79
2023/10/19 06:42:58;;;;;;;14.33;13.43;;;14.50;52.00;;;;;;6129420;23;20425;-82
2023/10/19 06:45:29;;;;;;;15.70;14.70;;;14.50;52.00;;;;;;6128214;23;20860;-81
2023/10/19 06:47:56;;;;;;;17.33;16.03;;;14.50;51.80;;;;;;6128534;23;20368;-78
2023/10/19 06:50:23;;;;;;;16.27;15.13;;;14.50;51.40;;;;;;6130778;23;20445;-77
2023/10/19 06:52:49;;;;;;;17.43;16.27;;;14.50;51.40;;;;;;6100861;23;20940;-78
2023/10/19 06:55:16;;;;;;;16.73;15.63;;;14.60;51.40;;;;;;6125014;23;20448;-78
2023/10/19 06:57:49;;;;;;;17.33;15.97;;;14.60;51.40;;;;;;6128560;23;20477;-78
2023/10/19 07:00:19;;;;;;;18.67;17.37;;;14.60;51.20;;;;;;6127410;23;20439;-77
2023/10/19 07:02:46;;;;;;;19.07;17.70;;;14.60;50.80;;;;;;6127593;23;20394;-79
2023/10/19 07:05:11;;;;;;;17.40;16.20;;;14.60;50.60;;;;;;6132479;23;20374;-78
2023/10/19 07:07:42;;;;;;;17.33;16.03;;;14.70;50.40;;;;;;6130296;23;20441;-79
2023/10/19 07:10:09;;;;;;;19.10;17.63;;;14.70;50.20;;;;;;6124468;23;20382;-79
2023/10/19 07:12:36;;;;;;;18.63;17.13;;;14.70;50.30;;;;;;6126334;23;20942;-78
2023/10/19 07:15:03;;;;;;;18.33;16.73;;;14.70;50.20;;;;;;6125604;23;20382;-77
2023/10/19 07:17:30;;;;;;;18.37;17.27;;;14.70;50.00;;;;;;6125628;23;20473;-78
2023/10/19 07:19:56;;;;;;;17.87;16.57;;;14.70;50.00;;;;;;6127881;23;20374;-78
2023/10/19 07:22:22;;;;;;;17.43;16.23;;;14.70;49.80;;;;;;6149307;23;20256;-79
2023/10/19 07:24:51;;;;;;;18.30;16.90;;;14.70;49.80;;;;;;6133554;23;20385;-78
2023/10/19 07:27:19;;;;;;;18.37;17.07;;;14.80;49.60;;;;;;6132928;23;20161;-78
2023/10/19 07:29:47;;;;;;;20.87;18.87;;;14.70;49.40;;;;;;6156006;23;20452;-77
2023/10/19 07:32:16;;;;;;;19.30;17.70;;;14.70;49.60;;;;;;6154797;23;20463;-77
2023/10/19 07:34:44;;;;;;;19.07;17.80;;;14.70;49.50;;;;;;6134742;23;20421;-78
2023/10/19 07:37:14;;;;;;;18.80;17.33;;;14.80;49.40;;;;;;6129462;23;20424;-78
2023/10/19 07:39:47;;;;;;;17.57;16.10;;;14.80;49.30;;;;;;6128002;23;20493;-78
2023/10/19 07:42:12;;;;;;;18.67;17.27;;;14.80;49.40;;;;;;6129397;23;20476;-79
2023/10/19 07:44:38;;;;;;;19.80;18.30;;;14.70;49.20;;;;;;6129477;23;20381;-78
2023/10/19 07:47:04;;;;;;;19.40;18.07;;;14.80;49.50;;;;;;6154845;23;20153;-77
2023/10/19 07:49:30;;;;;;;19.13;17.63;;;14.80;49.40;;;;;;6155022;23;20232;-78
2023/10/19 07:51:57;;;;;;;20.97;19.30;;;14.80;49.20;;;;;;6154859;23;20169;-77
2023/10/19 07:54:23;;;;;;;20.57;18.67;;;14.80;49.20;;;;;;6152431;23;20373;-78
2023/10/19 07:56:50;;;;;;;20.30;18.80;;;14.80;48.80;;;;;;6152617;23;20499;-77
2023/10/19 07:59:16;;;;;;;20.00;18.40;;;14.80;49.30;;;;;;6151322;23;20169;-78
2023/10/19 08:01:42;;;;;;;19.87;18.37;;;14.80;49.70;;;;;;6126686;23;20909;-78
2023/10/19 08:04:07;;;;;;;19.27;17.87;;;14.80;49.60;;;;;;6154651;23;20460;-78
2023/10/19 08:06:33;;;;;;;20.03;18.43;;;14.70;49.30;;;;;;6153550;23;20485;-79
2023/10/19 08:08:59;;;;;;;19.77;18.20;;;14.70;49.70;;;;;;6150107;23;20161;-78
2023/10/19 08:11:25;;;;;;;19.77;18.17;;;14.70;50.20;;;;;;6157537;23;20192;-77
2023/10/19 08:13:50;;;;;;;21.07;19.37;;;14.70;50.50;;;;;;6133071;23;20448;-76
2023/10/19 08:16:16;;;;;;;22.40;20.60;;;14.80;50.60;;;;;;6131103;23;20381;-79
2023/10/19 08:18:43;;;;;;;20.73;19.17;;;14.80;50.50;;;;;;6131802;23;20268;-77
2023/10/19 08:21:08;;;;;;;20.60;19.00;;;14.80;50.50;;;;;;6159721;23;20185;-78
2023/10/19 08:23:34;;;;;;;21.50;19.60;;;14.80;50.50;;;;;;6133971;23;20443;-79
2023/10/19 08:26:00;;;;;;;20.40;18.90;;;14.90;50.50;;;;;;6135172;23;20150;-78
2023/10/19 08:28:25;;;;;;;20.67;19.07;;;14.90;50.40;;;;;;6158294;23;20157;-80
2023/10/19 08:30:57;;;;;;;22.13;20.27;;;14.90;50.40;;;;;;6160390;23;20224;-79
2023/10/19 08:33:26;;;;;;;21.60;19.50;;;14.90;50.60;;;;;;6138293;23;20158;-77
2023/10/19 08:35:59;;;;;;;21.00;19.40;;;15.00;50.80;;;;;;6139765;23;20389;-82
2023/10/19 08:38:26;;;;;;;21.63;19.73;;;15.00;50.60;;;;;;6133966;23;20428;-79
2023/10/19 08:40:52;;;;;;;21.50;19.80;;;15.00;50.60;;;;;;6134811;23;20409;-78
2023/10/19 08:43:21;;;;;;;20.20;18.47;;;15.00;50.90;;;;;;6137542;23;20385;-78
2023/10/19 08:45:46;;;;;;;22.90;20.90;;;15.00;51.20;;;;;;6164456;23;20370;-79
2023/10/19 08:48:12;;;;;;;23.10;21.17;;;15.10;51.70;;;;;;6137024;23;20471;-79
2023/10/19 08:50:41;;;;;;;27.90;25.80;;;15.10;52.20;;;;;;6161915;23;20154;-78
2023/10/19 08:53:19;;;;;;;23.13;21.17;;;15.20;52.50;;;;;;6161216;23;20227;-80
2023/10/19 08:55:45;;;;;;;21.40;19.50;;;15.20;52.80;;;;;;6137129;23;20400;-80
2023/10/19 08:58:11;;;;;;;20.67;19.17;;;15.20;52.80;;;;;;6162616;23;20420;-80
2023/10/19 09:00:49;;;;;;;21.57;19.57;;;15.30;53.30;;;;;;6161245;23;20207;-83
2023/10/19 09:03:19;;;;;;;21.90;19.70;;;15.30;53.20;;;;;;6164059;23;20455;-78
2023/10/19 09:05:48;;;;;;;20.97;19.07;;;15.30;53.20;;;;;;6109501;23;20420;-80
2023/10/19 09:08:17;;;;;;;21.10;19.40;;;15.40;53.10;;;;;;6160307;23;20408;-78
2023/10/19 09:10:47;;;;;;;19.93;18.17;;;15.60;52.80;;;;;;6134839;23;20787;-80
2023/10/19 09:13:14;;;;;;;19.17;17.50;;;15.70;52.40;;;;;;6163711;23;20408;-79
2023/10/19 09:15:41;;;;;;;18.77;17.30;;;15.70;51.90;;;;;;6163604;23;20373;-80
2023/10/19 09:18:16;;;;;;;18.57;17.10;;;15.80;51.90;;;;;;6136075;23;20460;-80
2023/10/19 09:20:52;;;;;;;18.27;16.87;;;15.90;51.80;;;;;;6162317;23;20401;-80
2023/10/19 09:23:20;;;;;;;18.63;16.83;;;16.00;51.10;;;;;;6139036;23;20724;-80
2023/10/19 09:25:54;;;;;;;17.73;16.20;;;16.00;50.80;;;;;;6173284;23;20984;-79
2023/10/19 09:28:21;;;;;;;16.73;15.13;;;16.10;51.10;;;;;;6122915;23;20372;-78
2023/10/19 09:30:48;;;;;;;15.37;14.07;;;16.10;51.20;;;;;;6175088;23;20362;-80
2023/10/19 09:33:17;;;;;;;16.70;15.20;;;16.10;51.30;;;;;;6148947;23;20381;-78
2023/10/19 09:35:47;;;;;;;15.63;14.37;;;16.20;51.80;;;;;;6145879;23;20368;-77
2023/10/19 09:38:21;;;;;;;14.97;13.47;;;16.20;52.00;;;;;;6144640;23;20444;-78
2023/10/19 09:40:51;;;;;;;15.57;14.37;;;16.30;52.50;;;;;;6164034;23;20385;-78
2023/10/19 09:43:32;;;;;;;15.53;13.80;;;16.30;52.20;;;;;;6158989;23;20377;-79
2023/10/19 09:46:01;;;;;;;14.47;13.17;;;16.30;51.90;;;;;;6155994;23;20373;-78
2023/10/19 09:48:27;;;;;;;14.20;13.00;;;16.40;52.20;;;;;;6158206;23;20385;-77
2023/10/19 09:50:58;;;;;;;14.07;13.07;;;16.40;52.40;;;;;;6155871;23;20902;-78
2023/10/19 09:53:26;;;;;;;14.17;12.63;;;16.50;52.50;;;;;;6155896;23;20592;-77
2023/10/19 09:55:56;;;;;;;14.30;13.20;;;16.40;51.50;;;;;;6155856;23;20381;-77
2023/10/19 09:58:29;;;;;;;13.57;12.37;;;16.50;51.10;;;;;;6155788;23;20416;-78
2023/10/19 10:00:57;;;;;;;13.23;12.07;;;16.50;50.90;;;;;;6155738;23;20353;-77
2023/10/19 10:03:45;;;;;;;13.83;12.40;;;16.50;50.60;;;;;;6156369;23;20388;-76
2023/10/19 10:06:15;;;;;;;13.43;12.30;;;16.50;50.70;;;;;;6156256;23;20379;-77
2023/10/19 10:08:42;;;;;;;12.93;11.83;;;16.50;50.90;;;;;;6155842;23;20373;-77
2023/10/19 10:11:19;;;;;;;13.00;11.90;;;16.50;51.60;;;;;;6129499;23;20416;-77
2023/10/19 10:13:45;;;;;;;12.50;11.40;;;16.50;51.80;;;;;;6155475;23;20424;-78
2023/10/19 10:16:14;;;;;;;12.67;11.50;;;16.50;51.90;;;;;;6157447;23;20401;-80
2023/10/19 10:18:41;;;;;;;12.77;11.77;;;16.60;51.90;;;;;;6156586;23;20430;-77
2023/10/19 10:21:24;;;;;;;11.00;10.10;;;16.50;51.90;;;;;;6155683;23;20420;-77
2023/10/19 10:23:54;;;;;;;10.17;9.30;;;16.50;51.70;;;;;;6129748;23;20409;-77
2023/10/19 10:26:24;;;;;;;12.57;11.67;;;16.60;51.00;;;;;;6156166;23;20385;-77
2023/10/19 10:29:34;;;;;;;11.13;10.37;;;16.60;51.30;;;;;;6129295;23;20738;-77
2023/10/19 10:31:59;;;;;;;10.77;10.17;;;16.50;51.70;;;;;;6151065;23;20409;-77
2023/10/19 10:34:39;;;;;;;10.60;10.00;;;16.60;52.10;;;;;;6155622;23;20387;-76
2023/10/19 10:37:10;;;;;;;11.03;10.20;;;16.60;52.40;;;;;;6155855;23;20519;-78
2023/10/19 10:39:37;;;;;;;10.23;9.43;;;16.60;52.80;;;;;;6155564;23;20720;-77
2023/10/19 10:42:05;;;;;;;10.37;9.77;;;16.60;51.50;;;;;;6129437;23;20481;-76
2023/10/19 10:44:43;;;;;;;9.90;9.20;;;16.60;50.00;;;;;;6129321;23;20387;-77
2023/10/19 10:47:31;;;;;;;11.77;11.00;;;16.70;49.10;;;;;;6155097;23;20468;-77
2023/10/19 10:49:58;;;;;;;10.80;10.10;;;16.70;48.90;;;;;;6155584;23;20362;-77
2023/10/19 10:52:31;;;;;;;10.43;9.80;;;16.80;48.80;;;;;;6155259;23;20883;-78
2023/10/19 10:55:18;;;;;;;10.67;9.77;;;16.80;48.90;;;;;;6154981;23;20373;-76
2023/10/19 10:57:47;;;;;;;10.50;9.83;;;16.80;49.20;;;;;;6128816;23;20417;-77
2023/10/19 11:00:18;;;;;;;9.77;9.20;;;16.80;49.20;;;;;;6128946;23;20473;-76
2023/10/19 11:02:49;;;;;;;9.63;8.90;;;16.90;49.20;;;;;;6154838;23;20448;-76
2023/10/19 11:05:18;;;;;;;9.43;8.73;;;16.90;49.40;;;;;;6154601;23;20419;-77
2023/10/19 11:08:02;;;;;;;9.33;8.80;;;16.90;49.40;;;;;;6154743;23;20806;-77
2023/10/19 11:10:29;;;;;;;9.67;9.00;;;17.00;49.00;;;;;;6155052;23;20456;-77
2023/10/19 11:13:04;;;;;;;9.80;8.87;;;17.00;49.30;;;;;;6154940;23;20392;-76
2023/10/19 11:15:30;;;;;;;9.40;8.70;;;17.00;49.10;;;;;;6154863;23;20383;-76
2023/10/19 11:17:57;;;;;;;9.03;8.53;;;17.00;49.40;;;;;;6128362;23;20420;-77
2023/10/19 11:20:24;;;;;;;8.93;8.40;;;17.00;49.50;;;;;;6154600;23;20150;-77
2023/10/19 11:22:52;;;;;;;9.10;8.60;;;17.00;49.80;;;;;;6154835;23;20417;-76
2023/10/19 11:25:19;;;;;;;9.37;8.77;;;17.00;50.70;;;;;;6154918;23;20377;-77
2023/10/19 11:27:46;;;;;;;6.83;6.50;;;16.90;50.30;;;;;;6155057;23;20408;-75
2023/10/19 11:30:12;;;;;;;8.80;8.20;;;16.90;49.80;;;;;;6155459;23;20380;-77
2023/10/19 11:32:38;;;;;;;8.17;7.67;;;16.90;50.30;;;;;;6128845;23;20416;-77
2023/10/19 11:35:06;;;;;;;7.47;7.17;;;16.90;51.20;;;;;;6156777;23;20145;-78
2023/10/19 11:37:45;;;;;;;8.90;7.20;;;16.90;51.50;;;;;;6130878;23;20435;-78
2023/10/19 11:40:11;;;;;;;7.80;7.17;;;16.80;51.80;;;;;;6158278;23;20383;-79
2023/10/19 11:42:38;;;;;;;7.53;6.93;;;16.80;52.50;;;;;;6158038;23;20393;-78
2023/10/19 11:45:06;;;;;;;8.40;7.70;;;16.80;53.20;;;;;;6158825;23;20409;-79
2023/10/19 11:47:31;;;;;;;6.73;6.33;;;16.70;53.40;;;;;;6157369;23;20149;-77
2023/10/19 11:49:57;;;;;;;7.20;6.60;;;16.70;54.00;;;;;;6158249;23;20863;-77
2023/10/19 11:52:23;;;;;;;6.90;6.50;;;16.70;54.80;;;;;;6132076;23;20177;-76
2023/10/19 11:54:48;;;;;;;6.27;5.87;;;16.70;55.70;;;;;;6159746;23;20533;-79
2023/10/19 11:57:14;;;;;;;7.03;6.63;;;16.70;56.80;;;;;;6134776;23;20467;-78
2023/10/19 11:59:44;;;;;;;6.17;5.67;;;16.60;57.20;;;;;;6164422;23;20156;-78
2023/10/19 12:02:09;;;;;;;6.43;6.10;;;16.60;57.90;;;;;;6134279;23;20181;-77
2023/10/19 12:04:36;;;;;;;6.50;6.00;;;16.60;58.80;;;;;;6135046;23;20381;-77
2023/10/19 12:07:03;;;;;;;6.20;5.90;;;16.60;59.50;;;;;;6132956;23;20392;-76
2023/10/19 12:09:29;;;;;;;6.80;6.40;;;16.60;60.10;;;;;;6159429;23;20404;-77
2023/10/19 12:11:56;;;;;;;7.47;6.90;;;16.50;60.80;;;;;;6158984;23;20396;-77
2023/10/19 12:14:22;;;;;;;6.87;6.27;;;16.50;61.60;;;;;;6134337;23;20867;-77
2023/10/19 12:16:48;;;;;;;7.17;6.77;;;16.50;62.10;;;;;;6160206;23;20760;-77
2023/10/19 12:19:14;;;;;;;7.03;6.63;;;16.50;62.90;;;;;;6159859;23;20365;-76
2023/10/19 12:21:44;;;;;;;7.27;6.50;;;16.50;63.20;;;;;;6160784;23;20241;-77
2023/10/19 12:24:10;;;;;;;6.70;6.30;;;16.50;63.80;;;;;;6158321;23;20435;-76
2023/10/19 12:26:38;;;;;;;7.40;6.80;;;16.50;64.20;;;;;;6157941;23;20812;-77
2023/10/19 12:29:11;;;;;;;8.93;6.60;;;16.50;64.80;;;;;;6161522;23;20150;-77
2023/10/19 12:31:39;;;;;;;7.83;7.23;;;16.40;64.80;;;;;;6156887;23;20405;-78
2023/10/19 12:34:11;;;;;;;7.80;7.40;;;16.40;64.90;;;;;;6131455;23;20424;-78
2023/10/19 12:36:36;;;;;;;11.17;10.43;;;16.40;65.00;;;;;;6157616;23;20449;-77
2023/10/19 12:39:09;;;;;;;38.23;34.77;;;16.50;65.50;;;;;;6157026;23;20405;-77
2023/10/19 12:41:35;;;;;;;30.77;27.87;;;16.40;65.50;;;;;;6133802;23;20201;-77
2023/10/19 12:44:07;;;;;;;12.43;11.27;;;16.50;65.40;;;;;;6158733;23;20692;-76
2023/10/19 12:46:36;;;;;;;17.80;16.23;;;16.50;65.00;;;;;;6132498;23;20142;-76
2023/10/19 12:49:13;;;;;;;21.40;19.47;;;16.50;65.00;;;;;;6156869;23;20421;-76
2023/10/19 12:51:42;;;;;;;10.70;9.80;;;16.50;65.00;;;;;;6159302;23;20389;-76